Time;durP1;ratioP1;P1;durP2;ratioP2;P2;SDS_P1;SDS_P2;PMS_P1;PMS_P2;Temp;Humidity;BMP_temperature;BMP_pressure;BME280_temperature;BME280_humidity;BME280_pressure;Samples;Min_cycle;Max_cycle;Signal;HPM_P1;HPM_P2
2023/09/08 00:00:58;;;;;;;6.05;4.50;;;;;;;20.63;57.77;101295.16;5032751;28;20285;-63
2023/09/08 00:03:26;;;;;;;5.90;4.22;;;;;;;20.60;58.12;101293.47;5033286;28;20207;-63
2023/09/08 00:05:54;;;;;;;5.85;4.25;;;;;;;20.54;58.41;101293.66;5025911;28;20227;-63
2023/09/08 00:08:24;;;;;;;6.47;4.20;;;;;;;20.51;58.37;101291.19;5035581;28;20207;-63
2023/09/08 00:10:52;;;;;;;5.82;4.38;;;;;;;20.45;58.59;101293.94;5032600;28;20573;-63
2023/09/08 00:13:21;;;;;;;4.55;4.13;;;;;;;20.41;58.74;101290.56;5026092;28;20577;-65
2023/09/08 00:15:49;;;;;;;5.78;4.25;;;;;;;20.41;58.84;101301.03;5032532;28;20227;-63
2023/09/08 00:18:17;;;;;;;8.38;4.22;;;;;;;20.38;59.03;101300.28;5033022;28;20206;-63
2023/09/08 00:20:45;;;;;;;6.55;4.40;;;;;;;20.36;58.81;101294.22;5024194;28;20713;-64
2023/09/08 00:23:13;;;;;;;6.32;4.28;;;;;;;20.33;59.30;101292.59;5027728;28;20214;-65
2023/09/08 00:25:42;;;;;;;6.55;4.40;;;;;;;20.30;59.31;101281.38;5030129;28;20222;-63
2023/09/08 00:28:10;;;;;;;5.82;4.38;;;;;;;20.27;59.34;101282.31;5032918;28;20603;-62
2023/09/08 00:30:38;;;;;;;5.32;4.18;;;;;;;20.27;59.31;101288.41;5031686;28;20203;-63
2023/09/08 00:33:08;;;;;;;6.35;4.15;;;;;;;20.25;59.47;101287.59;5033357;28;20564;-63
2023/09/08 00:35:39;;;;;;;6.75;4.80;;;;;;;20.22;59.68;101285.09;5033584;28;20565;-63
2023/09/08 00:38:09;;;;;;;5.78;4.93;;;;;;;20.19;60.00;101285.16;5028476;28;20242;-63
2023/09/08 00:40:37;;;;;;;6.88;4.85;;;;;;;20.17;59.94;101286.97;5027055;28;20218;-63
2023/09/08 00:43:09;;;;;;;7.43;4.47;;;;;;;20.15;60.07;101290.56;5032035;28;20198;-63
2023/09/08 00:45:41;;;;;;;6.68;4.13;;;;;;;20.16;60.30;101295.72;5026576;28;20226;-62
2023/09/08 00:48:10;;;;;;;6.13;4.25;;;;;;;20.16;60.01;101290.50;5030679;28;20241;-65
2023/09/08 00:50:42;;;;;;;6.43;4.00;;;;;;;20.17;59.86;101294.81;5034502;28;20210;-66
2023/09/08 00:53:12;;;;;;;5.50;4.13;;;;;;;20.16;59.93;101295.72;5034022;28;20202;-61
2023/09/08 00:55:41;;;;;;;9.23;4.50;;;;;;;20.15;60.16;101283.56;5037162;28;20283;-63
2023/09/08 00:58:12;;;;;;;4.75;4.28;;;;;;;20.15;60.12;101304.50;5034070;28;20768;-63
2023/09/08 01:00:40;;;;;;;4.47;3.97;;;;;;;20.13;60.19;101295.81;5031760;28;20199;-63
2023/09/08 01:03:07;;;;;;;4.95;4.18;;;;;;;20.12;60.39;101294.13;5030766;28;20290;-61
2023/09/08 01:05:36;;;;;;;4.25;3.88;;;;;;;20.13;59.87;101290.59;5026717;28;20223;-63
2023/09/08 01:08:05;;;;;;;5.93;4.22;;;;;;;20.14;60.19;101297.56;5031828;28;20561;-63
2023/09/08 01:10:33;;;;;;;14.18;4.47;;;;;;;20.15;60.43;101280.09;5027400;28;20213;-64
2023/09/08 01:13:01;;;;;;;7.72;4.63;;;;;;;20.16;60.11;101281.78;5032227;28;20203;-63
2023/09/08 01:15:31;;;;;;;6.30;4.10;;;;;;;20.15;60.09;101282.72;5028219;28;20238;-63
2023/09/08 01:17:59;;;;;;;5.22;4.00;;;;;;;20.14;59.82;101280.97;5028991;28;20214;-64
2023/09/08 01:20:31;;;;;;;4.90;4.03;;;;;;;20.12;60.31;101283.66;5029158;28;20269;-63
2023/09/08 01:23:11;;;;;;;5.15;4.05;;;;;;;20.15;60.59;101291.41;5030739;28;20207;-68
2023/09/08 01:25:45;;;;;;;7.57;4.30;;;;;;;20.12;60.06;101273.19;5033842;28;20218;-65
2023/09/08 01:28:14;;;;;;;4.97;4.43;;;;;;;20.09;60.41;101273.28;5036942;28;20203;-63
2023/09/08 01:30:43;;;;;;;6.47;4.63;;;;;;;20.06;60.51;101278.59;5018012;28;20238;-63
2023/09/08 01:33:12;;;;;;;7.35;5.10;;;;;;;20.03;60.52;101273.50;5023931;28;20207;-63
2023/09/08 01:35:40;;;;;;;6.13;4.05;;;;;;;20.01;60.54;101275.28;5026956;28;20254;-64
2023/09/08 01:38:08;;;;;;;5.53;3.83;;;;;;;19.99;60.83;101277.06;5030018;28;20599;-64
2023/09/08 01:40:37;;;;;;;5.18;4.68;;;;;;;19.97;60.68;101271.06;5025966;28;20723;-65
2023/09/08 01:43:06;;;;;;;5.05;4.45;;;;;;;19.96;60.83;101271.97;5031342;28;20207;-63
2023/09/08 01:45:34;;;;;;;6.43;4.68;;;;;;;19.93;60.68;101266.81;5030998;28;20215;-63
2023/09/08 01:48:03;;;;;;;7.95;4.80;;;;;;;19.92;61.02;101270.31;5025279;28;20256;-63
2023/09/08 01:50:30;;;;;;;6.40;4.20;;;;;;;19.90;61.20;101267.75;5031617;28;20230;-62
2023/09/08 01:52:58;;;;;;;5.28;4.70;;;;;;;19.90;61.30;101266.91;5032195;28;20708;-62
2023/09/08 01:55:26;;;;;;;5.80;4.53;;;;;;;19.87;60.90;101264.38;5030352;28;20206;-63
2023/09/08 01:57:54;;;;;;;5.97;5.20;;;;;;;19.86;61.16;101262.69;5030886;28;20305;-65
2023/09/08 02:00:24;;;;;;;6.95;4.68;;;;;;;19.88;61.25;101266.09;5030733;28;20672;-63
2023/09/08 02:02:51;;;;;;;4.95;4.40;;;;;;;19.87;61.12;101262.63;5031158;28;20217;-65
2023/09/08 02:05:19;;;;;;;6.13;5.50;;;;;;;19.84;61.20;101261.84;5026871;28;20238;-65
2023/09/08 02:07:47;;;;;;;7.47;5.32;;;;;;;19.82;61.41;101253.22;5027637;28;20253;-65
2023/09/08 02:10:16;;;;;;;6.32;4.75;;;;;;;19.77;61.35;101256.84;5027826;28;20322;-67
2023/09/08 02:12:44;;;;;;;6.43;5.30;;;;;;;19.77;61.75;101259.44;5030170;28;20213;-67
2023/09/08 02:15:12;;;;;;;6.13;4.95;;;;;;;19.78;61.84;101258.53;5034992;28;20234;-67
2023/09/08 02:17:41;;;;;;;6.10;5.35;;;;;;;19.77;61.41;101262.06;5030393;28;20202;-66
2023/09/08 02:20:11;;;;;;;5.40;4.90;;;;;;;19.82;61.57;101263.69;5024780;28;20280;-66
2023/09/08 02:22:39;;;;;;;6.35;4.38;;;;;;;19.82;61.67;101266.28;5025288;28;20588;-63
2023/09/08 02:25:08;;;;;;;5.40;4.85;;;;;;;19.82;61.85;101263.69;5016319;28;20215;-62
2023/09/08 02:27:37;;;;;;;6.88;5.10;;;;;;;19.81;61.51;101261.94;5030278;28;20261;-62
2023/09/08 02:30:06;;;;;;;7.18;5.10;;;;;;;19.79;61.75;101262.84;5025136;28;20304;-63
2023/09/08 02:32:34;;;;;;;5.13;4.63;;;;;;;19.81;61.84;101259.31;5029563;28;20294;-62
2023/09/08 02:35:04;;;;;;;5.95;4.65;;;;;;;19.83;61.53;101257.53;5027937;28;20285;-61
2023/09/08 02:37:32;;;;;;;5.68;4.72;;;;;;;19.82;61.32;101255.84;5030394;28;20202;-62
2023/09/08 02:40:00;;;;;;;5.93;4.97;;;;;;;19.82;61.51;101253.22;5031476;28;20211;-62
2023/09/08 02:42:28;;;;;;;5.93;4.72;;;;;;;19.81;61.73;101254.09;5018719;28;20274;-63
2023/09/08 02:44:56;;;;;;;5.90;4.82;;;;;;;19.79;61.46;101249.78;5032718;28;20205;-62
2023/09/08 02:47:24;;;;;;;5.75;5.15;;;;;;;19.73;61.78;101239.50;5029636;28;20229;-62
2023/09/08 02:49:52;;;;;;;5.97;5.38;;;;;;;19.72;61.93;101244.78;5029921;28;20210;-62
2023/09/08 02:52:21;;;;;;;9.70;5.13;;;;;;;19.70;62.02;101247.47;5026495;28;20210;-62
2023/09/08 02:54:49;;;;;;;5.85;5.15;;;;;;;19.71;61.92;101243.94;5030611;28;20203;-63
2023/09/08 02:57:17;;;;;;;6.82;5.40;;;;;;;19.70;62.10;101246.56;5029025;28;20246;-63
2023/09/08 02:59:50;;;;;;;6.10;5.30;;;;;;;19.67;62.47;101242.31;5027487;28;20210;-61
2023/09/08 03:02:18;;;;;;;5.85;5.25;;;;;;;19.64;62.17;101245.00;5029408;28;20298;-61
2023/09/08 03:04:46;;;;;;;6.60;5.50;;;;;;;19.63;62.20;101238.09;5030329;28;20217;-63
2023/09/08 03:07:14;;;;;;;7.30;5.10;;;;;;;19.63;62.34;101243.31;5031208;28;20214;-62
2023/09/08 03:09:43;;;;;;;8.48;5.75;;;;;;;19.65;62.15;101232.78;5034301;28;20202;-62
2023/09/08 03:12:11;;;;;;;6.78;6.10;;;;;;;19.66;62.33;101227.53;5033064;28;20592;-63
2023/09/08 03:14:39;;;;;;;9.95;5.90;;;;;;;19.68;62.04;101236.16;5032457;28;20232;-64
2023/09/08 03:17:07;;;;;;;8.18;5.80;;;;;;;19.67;62.03;101233.63;5033656;28;20225;-60
2023/09/08 03:19:34;;;;;;;5.95;5.25;;;;;;;19.64;62.05;101218.88;5026633;28;20206;-60
2023/09/08 03:22:03;;;;;;;7.55;5.88;;;;;;;19.64;62.36;101218.88;5032950;28;21186;-61
2023/09/08 03:24:31;;;;;;;9.90;5.75;;;;;;;19.63;62.19;101217.16;5034523;28;20658;-61
2023/09/08 03:27:03;;;;;;;7.80;5.57;;;;;;;19.60;62.44;101214.59;5034391;28;20261;-59
2023/09/08 03:29:31;;;;;;;7.68;5.80;;;;;;;19.57;62.52;101209.47;5035545;28;20568;-65
2023/09/08 03:31:59;;;;;;;6.03;4.85;;;;;;;19.61;62.39;101218.91;5042271;28;20214;-64
2023/09/08 03:34:27;;;;;;;5.85;5.20;;;;;;;19.62;62.54;101225.00;5031874;28;20210;-61
2023/09/08 03:36:55;;;;;;;8.13;5.35;;;;;;;19.60;62.35;101216.38;5029185;28;20211;-61
2023/09/08 03:39:23;;;;;;;9.23;6.07;;;;;;;19.58;62.28;101221.63;5031034;28;20589;-60
2023/09/08 03:41:51;;;;;;;7.35;5.60;;;;;;;19.58;62.42;101220.78;5031261;28;20214;-61
2023/09/08 03:44:20;;;;;;;6.28;5.43;;;;;;;19.56;62.24;101228.69;5029591;28;20662;-62
2023/09/08 03:46:48;;;;;;;8.55;5.25;;;;;;;19.52;62.56;101224.44;5033266;28;20214;-60
2023/09/08 03:49:16;;;;;;;8.40;5.53;;;;;;;19.51;62.43;101220.09;5033102;28;20241;-61
2023/09/08 03:51:44;;;;;;;7.85;5.72;;;;;;;19.46;62.80;101224.63;5032870;28;20560;-59
2023/09/08 03:54:12;;;;;;;9.73;5.35;;;;;;;19.44;62.74;101226.41;5027067;28;20199;-62
2023/09/08 03:56:39;;;;;;;5.95;5.35;;;;;;;19.39;63.07;101223.94;5033770;28;20535;-63
2023/09/08 03:59:07;;;;;;;6.65;5.63;;;;;;;19.38;63.02;101235.28;5025313;28;20685;-64
2023/09/08 04:01:37;;;;;;;6.63;5.45;;;;;;;19.37;63.05;101238.81;5024649;28;20203;-60
2023/09/08 04:04:05;;;;;;;9.77;6.25;;;;;;;19.33;63.22;101233.69;5029985;28;20257;-62
2023/09/08 04:06:33;;;;;;;6.45;5.65;;;;;;;19.33;63.05;101228.47;5033289;28;20218;-63
2023/09/08 04:09:01;;;;;;;7.40;6.22;;;;;;;19.31;63.26;101225.91;5032684;28;20596;-61
2023/09/08 04:11:29;;;;;;;8.50;5.45;;;;;;;19.31;63.30;101226.78;5029993;28;20218;-63
2023/09/08 04:13:57;;;;;;;7.15;5.45;;;;;;;19.31;63.25;101226.78;5031419;28;20202;-62
2023/09/08 04:16:26;;;;;;;6.70;5.75;;;;;;;19.30;63.24;101219.84;5033690;28;20658;-62
2023/09/08 04:18:55;;;;;;;8.77;5.47;;;;;;;19.29;63.38;101225.09;5030936;28;20199;-60
2023/09/08 04:21:24;;;;;;;8.38;6.00;;;;;;;19.29;63.42;101218.13;5030525;28;20241;-61
2023/09/08 04:23:52;;;;;;;8.70;6.05;;;;;;;19.30;63.41;101224.22;5031648;28;20210;-63
2023/09/08 04:26:20;;;;;;;7.13;5.53;;;;;;;19.32;63.42;101217.16;5030694;28;20241;-63
2023/09/08 04:28:48;;;;;;;6.57;5.55;;;;;;;19.35;63.42;101217.09;5032599;28;20661;-61
2023/09/08 04:31:16;;;;;;;6.50;5.40;;;;;;;19.40;63.10;101222.16;5029011;28;20257;-61
2023/09/08 04:33:44;;;;;;;8.27;5.70;;;;;;;19.40;63.18;101219.56;5032864;28;20216;-62
2023/09/08 04:36:15;;;;;;;10.80;5.90;;;;;;;19.42;63.16;101225.59;5033126;28;20289;-62
2023/09/08 04:38:44;;;;;;;6.70;5.50;;;;;;;19.41;63.16;101222.16;5032076;28;20206;-62
2023/09/08 04:41:12;;;;;;;7.65;5.93;;;;;;;19.42;63.29;101218.63;5029837;28;20298;-62
2023/09/08 04:43:40;;;;;;;10.32;5.75;;;;;;;19.45;62.99;101218.53;5025260;28;20302;-61
2023/09/08 04:46:08;;;;;;;7.78;5.32;;;;;;;19.48;63.13;101221.06;5036251;28;20726;-63
2023/09/08 04:48:36;;;;;;;8.55;6.03;;;;;;;19.52;63.04;101216.59;5031205;28;20215;-62
2023/09/08 04:51:07;;;;;;;6.38;5.53;;;;;;;19.55;62.94;101219.09;5031479;28;20199;-63
2023/09/08 04:53:37;;;;;;;7.18;6.07;;;;;;;19.59;62.93;101218.13;5031088;28;20206;-62
2023/09/08 04:56:06;;;;;;;6.95;5.45;;;;;;;19.67;63.10;101218.78;5031199;28;20260;-62
2023/09/08 04:58:34;;;;;;;6.38;5.55;;;;;;;19.74;62.71;101219.44;5031198;28;20198;-63
2023/09/08 05:01:02;;;;;;;7.45;6.25;;;;;;;19.78;62.19;101211.47;5025440;28;20253;-62
2023/09/08 05:03:30;;;;;;;6.90;5.60;;;;;;;19.77;62.34;101215.00;5024097;28;20226;-59
2023/09/08 05:05:58;;;;;;;6.00;5.03;;;;;;;19.88;62.39;101212.00;5020571;28;20230;-61
2023/09/08 05:08:26;;;;;;;8.20;5.55;;;;;;;19.93;61.99;101210.13;5032190;28;20349;-60
2023/09/08 05:10:56;;;;;;;7.60;6.07;;;;;;;19.98;61.85;101213.44;5028601;28;20636;-61
2023/09/08 05:13:26;;;;;;;8.38;5.82;;;;;;;19.98;61.47;101212.59;5032658;28;20691;-61
2023/09/08 05:16:10;;;;;;;10.02;5.82;;;;;;;19.94;61.28;101213.59;5023024;28;20229;-59
2023/09/08 05:18:39;;;;;;;10.50;6.43;;;;;;;19.87;61.69;101207.69;5031170;28;20676;-62
2023/09/08 05:21:07;;;;;;;7.07;6.03;;;;;;;19.81;61.74;101205.28;5021709;28;20601;-59
2023/09/08 05:23:35;;;;;;;8.10;5.85;;;;;;;19.77;62.17;101204.53;5026508;28;20676;-61
2023/09/08 05:26:04;;;;;;;7.72;5.80;;;;;;;19.76;62.53;101208.03;5027046;28;20234;-59
2023/09/08 05:28:32;;;;;;;7.18;5.65;;;;;;;19.76;62.64;101204.56;5032118;28;20215;-63
2023/09/08 05:31:05;;;;;;;10.27;5.80;;;;;;;19.81;62.72;101209.63;5029083;28;20557;-62
2023/09/08 05:33:33;;;;;;;9.68;5.97;;;;;;;19.83;62.46;101202.59;5027868;28;20303;-60
2023/09/08 05:36:01;;;;;;;9.30;5.53;;;;;;;19.84;62.38;101210.41;5024226;28;20207;-62
2023/09/08 05:38:29;;;;;;;6.95;5.68;;;;;;;19.87;62.55;101212.06;5034612;28;20255;-60
2023/09/08 05:40:57;;;;;;;9.75;6.13;;;;;;;19.92;62.48;101212.75;5034789;28;20653;-60
2023/09/08 05:43:27;;;;;;;6.53;5.32;;;;;;;19.95;62.45;101202.22;5030977;28;20688;-58
2023/09/08 05:45:55;;;;;;;10.68;5.72;;;;;;;20.01;62.24;101209.88;5024770;28;20201;-60
2023/09/08 05:48:23;;;;;;;8.73;6.03;;;;;;;20.03;61.73;101208.06;5023695;28;20215;-60
2023/09/08 05:50:51;;;;;;;8.82;6.32;;;;;;;20.07;61.79;101212.31;5030295;28;20203;-62
2023/09/08 05:53:19;;;;;;;9.32;5.70;;;;;;;20.14;61.79;101208.59;5030456;28;20264;-62
2023/09/08 05:55:47;;;;;;;9.60;6.45;;;;;;;20.19;61.64;101216.28;5024817;28;20211;-61
2023/09/08 05:58:15;;;;;;;8.32;5.93;;;;;;;20.21;61.52;101212.72;5028792;28;20650;-64
2023/09/08 06:00:44;;;;;;;9.10;6.40;;;;;;;20.23;61.32;101212.66;5030872;28;20240;-62
2023/09/08 06:03:12;;;;;;;7.53;5.88;;;;;;;20.27;61.38;101212.50;5029197;28;20290;-62
2023/09/08 06:05:40;;;;;;;7.07;6.07;;;;;;;20.32;61.41;101211.47;5022403;28;20203;-62
2023/09/08 06:08:08;;;;;;;12.73;6.40;;;;;;;20.39;61.36;101210.38;5026911;28;20265;-66
2023/09/08 06:10:36;;;;;;;10.50;6.82;;;;;;;20.45;60.75;101207.56;5026135;28;20207;-62
2023/09/08 06:13:04;;;;;;;7.82;6.30;;;;;;;20.50;60.85;101209.13;5027373;28;20206;-61
2023/09/08 06:15:32;;;;;;;13.63;6.68;;;;;;;20.59;60.76;101212.34;5027774;28;20559;-62
2023/09/08 06:18:02;;;;;;;10.15;6.28;;;;;;;20.70;60.66;101204.97;5025390;28;20290;-63
2023/09/08 06:20:30;;;;;;;10.20;6.38;;;;;;;20.87;60.09;101207.84;5027294;28;20595;-61
2023/09/08 06:22:58;;;;;;;8.60;6.13;;;;;;;21.11;59.39;101211.34;5027360;28;20203;-62
2023/09/08 06:25:28;;;;;;;7.95;6.50;;;;;;;21.37;58.90;101204.31;5031439;28;20568;-67
2023/09/08 06:27:56;;;;;;;7.93;6.50;;;;;;;21.66;57.89;101205.81;5050441;28;20213;-64
2023/09/08 06:30:24;;;;;;;8.60;6.30;;;;;;;21.91;57.07;101203.09;5051245;28;20210;-62
2023/09/08 06:32:52;;;;;;;9.98;6.22;;;;;;;22.13;56.29;101192.56;5039905;28;20202;-61
2023/09/08 06:35:21;;;;;;;8.13;5.80;;;;;;;22.35;55.71;101198.66;5051144;28;20285;-65
2023/09/08 06:37:49;;;;;;;10.45;5.95;;;;;;;22.54;54.94;101197.88;5044560;28;20273;-62
2023/09/08 06:40:17;;;;;;;8.90;5.80;;;;;;;22.69;54.20;101199.00;5026372;28;20305;-61
2023/09/08 06:42:45;;;;;;;13.32;6.15;;;;;;;22.82;53.87;101198.34;5029399;28;20210;-62
2023/09/08 06:45:14;;;;;;;8.63;6.10;;;;;;;22.97;53.46;101204.75;5026691;28;20206;-61
2023/09/08 06:47:43;;;;;;;8.35;6.25;;;;;;;23.13;52.96;101203.16;5028111;28;20576;-63
2023/09/08 06:50:11;;;;;;;8.05;6.13;;;;;;;23.25;52.62;101204.34;5021665;28;20206;-61
2023/09/08 06:52:40;;;;;;;10.52;6.25;;;;;;;23.39;51.98;101198.47;5029811;28;20206;-63
2023/09/08 06:55:09;;;;;;;7.38;5.45;;;;;;;23.57;51.77;101200.25;5030804;28;20642;-63
2023/09/08 06:57:37;;;;;;;11.65;6.07;;;;;;;23.80;51.16;101198.31;5030293;28;20206;-62
2023/09/08 07:00:07;;;;;;;8.77;6.10;;;;;;;24.00;50.54;101192.91;5026998;28;20738;-62
2023/09/08 07:02:35;;;;;;;14.68;5.93;;;;;;;24.16;50.23;101193.03;5026011;28;20391;-63
2023/09/08 07:05:07;;;;;;;8.48;5.53;;;;;;;24.30;49.93;101189.69;5028919;28;20692;-64
2023/09/08 07:07:36;;;;;;;9.95;6.20;;;;;;;24.47;49.33;101191.50;5027975;28;20199;-64
2023/09/08 07:10:06;;;;;;;8.88;5.63;;;;;;;24.65;48.61;101187.06;5028319;28;20198;-63
2023/09/08 07:12:34;;;;;;;14.18;6.10;;;;;;;24.81;48.26;101190.59;5028052;28;20256;-64
2023/09/08 07:15:02;;;;;;;15.05;6.30;;;;;;;24.99;48.17;101189.59;5026615;28;20206;-71
2023/09/08 07:17:30;;;;;;;9.85;6.40;;;;;;;25.18;47.29;101186.00;5029109;28;20206;-70
2023/09/08 07:19:58;;;;;;;11.80;6.95;;;;;;;25.31;47.33;101187.06;5027656;28;20238;-71
2023/09/08 07:22:26;;;;;;;15.07;5.93;;;;;;;25.48;47.07;101192.25;5027943;28;20245;-72
2023/09/08 07:24:54;;;;;;;8.52;5.60;;;;;;;25.64;46.22;101181.69;5016886;28;20309;-73
2023/09/08 07:27:24;;;;;;;7.63;5.68;;;;;;;25.84;45.57;101182.38;5025517;28;20202;-72
2023/09/08 07:29:52;;;;;;;10.52;6.07;;;;;;;26.00;45.51;101189.34;5021440;28;20241;-70
2023/09/08 07:32:20;;;;;;;9.98;5.88;;;;;;;26.21;45.09;101187.22;5030177;28;20199;-74
2023/09/08 07:34:54;;;;;;;13.55;6.28;;;;;;;26.44;44.62;101182.38;5028926;28;20241;-66
2023/09/08 07:37:24;;;;;;;9.45;5.60;;;;;;;27.59;42.40;101185.84;5024064;28;20289;-68
2023/09/08 07:39:52;;;;;;;9.63;6.07;;;;;;;28.82;39.86;101189.09;5030804;28;20556;-67
2023/09/08 07:42:20;;;;;;;14.85;6.47;;;;;;;29.74;38.01;101187.84;5030921;28;20603;-66
2023/09/08 07:44:49;;;;;;;7.18;5.55;;;;;;;30.53;36.10;101191.66;5030687;28;20568;-66
2023/09/08 07:47:17;;;;;;;9.85;5.55;;;;;;;30.75;35.12;101186.38;5040317;28;20218;-66
2023/09/08 07:49:47;;;;;;;8.13;5.57;;;;;;;30.76;34.85;101190.72;5030011;28;20218;-68
2023/09/08 07:52:15;;;;;;;6.95;5.43;;;;;;;30.86;35.40;101189.97;5030743;28;20548;-66
2023/09/08 07:54:43;;;;;;;10.00;5.90;;;;;;;30.93;34.62;101183.22;5029874;28;20211;-67
2023/09/08 07:57:11;;;;;;;9.38;5.60;;;;;;;31.50;34.46;101179.53;5030232;28;20206;-68
2023/09/08 07:59:39;;;;;;;8.52;5.28;;;;;;;32.44;32.91;101180.56;5032383;28;20756;-70
2023/09/08 08:02:08;;;;;;;11.88;5.70;;;;;;;33.48;31.79;101181.31;5036203;28;20558;-70
2023/09/08 08:04:36;;;;;;;9.18;5.53;;;;;;;34.43;29.88;101175.19;5027581;28;20203;-67
2023/09/08 08:07:05;;;;;;;7.32;5.35;;;;;;;35.13;28.61;101171.16;5033348;28;20273;-68
2023/09/08 08:09:33;;;;;;;6.57;5.10;;;;;;;35.44;27.55;101168.97;5023951;28;20690;-69
2023/09/08 08:12:01;;;;;;;8.77;5.60;;;;;;;35.93;27.57;101173.97;5034218;28;20241;-68
2023/09/08 08:14:29;;;;;;;9.82;5.28;;;;;;;36.46;25.94;101167.66;5030647;28;20217;-68
2023/09/08 08:16:57;;;;;;;17.73;5.97;;;;;;;36.71;26.03;101164.13;5029718;28;20210;-69
2023/09/08 08:19:27;;;;;;;8.48;5.35;;;;;;;36.82;25.88;101168.34;5029030;28;20210;-68
2023/09/08 08:21:56;;;;;;;8.90;5.30;;;;;;;36.91;25.19;101170.09;5031608;28;20337;-68
2023/09/08 08:24:24;;;;;;;7.72;5.28;;;;;;;36.92;25.11;101174.44;5027816;28;20214;-69
2023/09/08 08:26:53;;;;;;;6.53;4.85;;;;;;;36.96;25.16;101177.69;5032917;28;20229;-68
2023/09/08 08:29:21;;;;;;;8.85;5.18;;;;;;;37.28;24.00;101182.31;5032451;28;20678;-68
2023/09/08 08:31:50;;;;;;;8.35;4.88;;;;;;;37.23;24.12;101179.28;5033473;28;20661;-67
2023/09/08 08:34:18;;;;;;;9.20;4.75;;;;;;;37.31;23.76;101179.31;5030409;28;20294;-68
2023/09/08 08:36:48;;;;;;;8.50;5.03;;;;;;;37.65;24.59;101183.75;5032698;28;20237;-67
2023/09/08 08:39:16;;;;;;;8.57;5.10;;;;;;;38.11;23.87;101167.94;5034525;28;20603;-69
2023/09/08 08:41:44;;;;;;;7.03;4.57;;;;;;;38.21;22.82;101167.78;5033342;28;20554;-69
2023/09/08 08:44:12;;;;;;;10.48;5.00;;;;;;;38.25;23.48;101171.81;5027493;28;20296;-69
2023/09/08 08:46:42;;;;;;;7.70;5.20;;;;;;;38.67;22.42;101171.56;5033213;28;20237;-68
2023/09/08 08:49:11;;;;;;;10.05;4.80;;;;;;;38.94;22.46;101164.91;5029821;28;20249;-72
2023/09/08 08:51:41;;;;;;;9.68;5.03;;;;;;;39.50;21.64;101157.47;5031352;28;20206;-68
2023/09/08 08:54:12;;;;;;;7.65;5.47;;;;;;;39.25;21.50;101162.22;5025853;28;20203;-70
2023/09/08 08:56:41;;;;;;;6.78;4.63;;;;;;;38.94;22.59;101164.06;5031903;28;20209;-70
2023/09/08 08:59:10;;;;;;;6.25;4.53;;;;;;;38.28;22.13;101164.22;5030664;28;20206;-70
2023/09/08 09:01:40;;;;;;;7.57;4.22;;;;;;;37.92;23.23;101159.22;5026075;28;20229;-67
2023/09/08 09:04:09;;;;;;;6.30;5.25;;;;;;;37.54;23.72;101166.09;5032108;28;20212;-63
2023/09/08 09:06:37;;;;;;;8.75;5.05;;;;;;;37.51;23.95;101155.66;5026924;28;20214;-66
2023/09/08 09:09:08;;;;;;;8.20;5.13;;;;;;;37.44;23.23;101158.16;5025959;28;20280;-64
2023/09/08 09:11:37;;;;;;;9.82;5.30;;;;;;;37.41;23.47;101155.81;5030350;28;20223;-63
2023/09/08 09:14:05;;;;;;;8.55;5.00;;;;;;;37.48;23.76;101151.44;5030006;28;20684;-63
2023/09/08 09:16:40;;;;;;;9.00;4.88;;;;;;;37.44;23.24;101157.34;5032449;28;20206;-63
2023/09/08 09:19:08;;;;;;;7.68;4.90;;;;;;;37.13;23.18;101151.72;5027648;28;20612;-63
2023/09/08 09:21:44;;;;;;;7.90;5.10;;;;;;;36.82;23.69;101148.72;5030080;28;20245;-66
2023/09/08 09:24:15;;;;;;;6.85;5.35;;;;;;;36.49;24.69;101148.56;5032128;28;20205;-64
2023/09/08 09:26:52;;;;;;;6.55;4.90;;;;;;;36.13;24.64;101145.16;5030123;28;20664;-62
2023/09/08 09:29:21;;;;;;;12.48;4.90;;;;;;;35.90;25.42;101148.31;5031977;28;20258;-67
2023/09/08 09:31:53;;;;;;;5.63;4.85;;;;;;;35.61;26.10;101132.47;5032577;28;20202;-63
2023/09/08 09:34:22;;;;;;;8.20;4.55;;;;;;;34.84;26.65;101139.16;5031840;28;20198;-63
2023/09/08 09:36:50;;;;;;;9.02;4.70;;;;;;;34.13;28.47;101145.88;5026398;28;20221;-62
2023/09/08 09:39:19;;;;;;;6.40;5.05;;;;;;;33.42;29.09;101142.59;5031176;28;20302;-64
2023/09/08 09:41:49;;;;;;;6.95;5.18;;;;;;;32.82;30.36;101147.06;5032179;28;20681;-62
2023/09/08 09:44:17;;;;;;;4.70;4.30;;;;;;;32.47;30.27;101140.31;5029107;28;20206;-62
2023/09/08 09:46:46;;;;;;;6.20;4.05;;;;;;;32.22;29.97;101133.56;5030887;28;20207;-60
2023/09/08 09:49:14;;;;;;;6.50;3.90;;;;;;;32.15;29.39;101138.56;5021173;28;20211;-60
2023/09/08 09:51:43;;;;;;;5.07;3.80;;;;;;;31.97;30.14;101140.97;5023069;28;20203;-60
2023/09/08 09:54:12;;;;;;;6.53;4.20;;;;;;;31.72;30.77;101136.81;5025567;28;20199;-60
2023/09/08 09:56:41;;;;;;;10.88;4.10;;;;;;;31.51;30.52;101127.94;5030938;28;20641;-61
2023/09/08 09:59:15;;;;;;;6.20;4.50;;;;;;;31.28;30.70;101122.66;5026403;28;20230;-60
2023/09/08 10:01:43;;;;;;;5.63;4.13;;;;;;;31.16;31.39;101125.47;5029241;28;20245;-70
2023/09/08 10:04:11;;;;;;;4.60;4.05;;;;;;;31.16;30.94;101126.31;5029268;28;20211;-65
2023/09/08 10:06:40;;;;;;;6.45;4.43;;;;;;;30.93;31.36;101119.31;5026911;28;20603;-62
2023/09/08 10:09:13;;;;;;;5.97;4.50;;;;;;;30.50;32.27;101120.06;5026832;28;20661;-58
2023/09/08 10:11:45;;;;;;;10.00;4.38;;;;;;;30.18;32.10;101120.72;5024112;28;20222;-64
2023/09/08 10:14:16;;;;;;;5.55;3.83;;;;;;;30.23;32.23;101118.59;5031271;28;20225;-61
2023/09/08 10:16:49;;;;;;;6.18;4.47;;;;;;;30.56;32.08;101115.09;5022938;28;20253;-60
2023/09/08 10:19:18;;;;;;;8.13;4.68;;;;;;;31.09;31.67;101116.28;5028623;28;20248;-59
2023/09/08 10:21:47;;;;;;;5.63;4.28;;;;;;;31.42;30.17;101118.06;5027025;28;20344;-61
2023/09/08 10:24:16;;;;;;;6.28;4.30;;;;;;;31.71;29.51;101111.16;5028004;28;20214;-61
2023/09/08 10:26:47;;;;;;;13.75;4.53;;;;;;;32.12;28.87;101116.66;5030542;28;20202;-59
2023/09/08 10:29:19;;;;;;;8.60;4.10;;;;;;;32.45;28.64;101111.09;5028660;28;21697;-60
2023/09/08 10:31:47;;;;;;;9.25;3.90;;;;;;;33.09;27.51;101104.56;5028647;28;20218;-61
2023/09/08 10:34:16;;;;;;;4.65;4.00;;;;;;;33.77;26.59;101110.00;5025868;28;20212;-61
2023/09/08 10:36:44;;;;;;;4.57;4.18;;;;;;;34.45;25.75;101106.31;5030380;28;20657;-63
2023/09/08 10:39:31;;;;;;;6.25;3.80;;;;;;;35.12;24.25;101101.66;5029051;28;20260;-60
2023/09/08 10:42:24;;;;;;;6.15;3.58;;;;;;;35.74;23.47;101099.88;5020175;28;20210;-59
2023/09/08 10:45:04;;;;;;;6.35;3.50;;;;;;;36.23;22.88;101090.38;5028011;28;20682;-59
2023/09/08 10:47:36;;;;;;;9.30;3.97;;;;;;;36.66;22.46;101088.56;5025430;28;20240;-60
2023/09/08 10:50:06;;;;;;;4.95;3.60;;;;;;;36.54;21.88;101086.34;5026508;28;20681;-60
2023/09/08 10:52:36;;;;;;;4.53;3.72;;;;;;;36.58;22.17;101083.16;5025427;28;20665;-59
2023/09/08 10:55:06;;;;;;;4.00;3.60;;;;;;;36.61;22.00;101085.53;5028404;28;20276;-60
2023/09/08 10:57:34;;;;;;;4.30;3.60;;;;;;;36.56;22.52;101078.94;5027297;28;20202;-61
2023/09/08 11:00:11;;;;;;;6.88;4.13;;;;;;;36.46;22.65;101079.91;5026492;28;20202;-60
2023/09/08 11:02:42;;;;;;;4.45;4.05;;;;;;;35.87;23.09;101076.19;5027848;28;20248;-60
2023/09/08 11:05:13;;;;;;;5.35;4.05;;;;;;;35.39;23.84;101066.75;5025669;28;20698;-60
2023/09/08 11:07:42;;;;;;;5.10;4.20;;;;;;;34.94;24.23;101064.91;5026332;28;20331;-61
2023/09/08 11:10:11;;;;;;;3.88;3.50;;;;;;;34.86;24.96;101064.84;5025602;28;20214;-60
2023/09/08 11:12:39;;;;;;;4.75;3.85;;;;;;;34.81;24.78;101065.31;5026342;28;20321;-61
2023/09/08 11:15:10;;;;;;;5.28;4.40;;;;;;;34.64;24.67;101067.94;5027938;28;20209;-61
2023/09/08 11:17:41;;;;;;;5.13;4.63;;;;;;;34.36;25.19;101063.41;5025529;28;20300;-60
2023/09/08 11:20:12;;;;;;;5.18;4.20;;;;;;;34.38;25.29;101060.56;5028675;28;20202;-62
2023/09/08 11:22:42;;;;;;;5.90;4.18;;;;;;;34.39;25.02;101064.91;5027241;28;20601;-60
2023/09/08 11:25:11;;;;;;;5.07;4.57;;;;;;;33.99;25.14;101063.41;5027427;28;20207;-59
2023/09/08 11:27:40;;;;;;;6.55;5.70;;;;;;;33.11;26.05;101054.53;5029606;28;20234;-62
2023/09/08 11:30:11;;;;;;;6.05;4.30;;;;;;;32.19;27.57;101059.97;5023611;28;20217;-64
2023/09/08 11:32:38;;;;;;;6.00;4.13;;;;;;;31.64;28.78;101062.00;5029231;28;20238;-62